sensor_id;sensor_type;location;lat;lon;timestamp;P1;durP1;ratioP1;P2;durP2;ratioP2
59145;SDS011;44928;53.074;6.646;2022-08-19T00:00:05;7.18;;;2.80;;
59145;SDS011;44928;53.074;6.646;2022-08-19T00:02:34;7.53;;;3.40;;
59145;SDS011;44928;53.074;6.646;2022-08-19T00:05:00;7.45;;;3.85;;
59145;SDS011;44928;53.074;6.646;2022-08-19T00:07:26;5.97;;;2.40;;
59145;SDS011;44928;53.074;6.646;2022-08-19T00:09:52;6.10;;;2.65;;
59145;SDS011;44928;53.074;6.646;2022-08-19T00:12:18;5.43;;;2.28;;
59145;SDS011;44928;53.074;6.646;2022-08-19T00:14:44;7.15;;;2.55;;
59145;SDS011;44928;53.074;6.646;2022-08-19T00:17:11;6.80;;;2.70;;
59145;SDS011;44928;53.074;6.646;2022-08-19T00:19:37;6.07;;;2.15;;
59145;SDS011;44928;53.074;6.646;2022-08-19T00:22:04;6.50;;;2.55;;
59145;SDS011;44928;53.074;6.646;2022-08-19T00:24:30;7.35;;;3.08;;
59145;SDS011;44928;53.074;6.646;2022-08-19T00:26:56;8.05;;;3.28;;
59145;SDS011;44928;53.074;6.646;2022-08-19T00:29:23;8.13;;;3.45;;
59145;SDS011;44928;53.074;6.646;2022-08-19T00:31:51;7.28;;;3.53;;
59145;SDS011;44928;53.074;6.646;2022-08-19T00:34:21;5.03;;;2.25;;
59145;SDS011;44928;53.074;6.646;2022-08-19T00:36:48;4.80;;;1.77;;
59145;SDS011;44928;53.074;6.646;2022-08-19T00:39:15;2.92;;;1.33;;
59145;SDS011;44928;53.074;6.646;2022-08-19T00:41:42;3.08;;;1.45;;
59145;SDS011;44928;53.074;6.646;2022-08-19T00:44:10;4.38;;;1.45;;
59145;SDS011;44928;53.074;6.646;2022-08-19T00:46:39;4.03;;;1.60;;
59145;SDS011;44928;53.074;6.646;2022-08-19T00:49:07;5.20;;;1.73;;
59145;SDS011;44928;53.074;6.646;2022-08-19T00:51:39;4.22;;;1.50;;
59145;SDS011;44928;53.074;6.646;2022-08-19T00:54:07;5.60;;;1.73;;
59145;SDS011;44928;53.074;6.646;2022-08-19T00:56:34;4.80;;;2.00;;
59145;SDS011;44928;53.074;6.646;2022-08-19T00:59:00;6.10;;;2.25;;
59145;SDS011;44928;53.074;6.646;2022-08-19T01:01:33;4.60;;;2.15;;
59145;SDS011;44928;53.074;6.646;2022-08-19T01:04:06;5.82;;;2.53;;
59145;SDS011;44928;53.074;6.646;2022-08-19T01:06:32;5.80;;;2.63;;
59145;SDS011;44928;53.074;6.646;2022-08-19T01:09:00;5.97;;;2.92;;
59145;SDS011;44928;53.074;6.646;2022-08-19T01:11:27;7.25;;;3.00;;
59145;SDS011;44928;53.074;6.646;2022-08-19T01:13:54;7.47;;;2.97;;
59145;SDS011;44928;53.074;6.646;2022-08-19T01:16:21;8.70;;;3.83;;
59145;SDS011;44928;53.074;6.646;2022-08-19T01:18:49;7.55;;;4.22;;
59145;SDS011;44928;53.074;6.646;2022-08-19T01:21:17;8.40;;;4.43;;
59145;SDS011;44928;53.074;6.646;2022-08-19T01:23:59;7.53;;;3.33;;
59145;SDS011;44928;53.074;6.646;2022-08-19T01:26:25;8.93;;;3.95;;
59145;SDS011;44928;53.074;6.646;2022-08-19T01:28:52;6.80;;;3.22;;
59145;SDS011;44928;53.074;6.646;2022-08-19T01:31:26;8.18;;;4.28;;
59145;SDS011;44928;53.074;6.646;2022-08-19T01:33:56;10.75;;;5.05;;
59145;SDS011;44928;53.074;6.646;2022-08-19T01:38:55;9.05;;;4.72;;
59145;SDS011;44928;53.074;6.646;2022-08-19T01:41:21;8.13;;;4.45;;
59145;SDS011;44928;53.074;6.646;2022-08-19T01:47:19;7.75;;;4.38;;
59145;SDS011;44928;53.074;6.646;2022-08-19T01:49:45;8.40;;;4.53;;
59145;SDS011;44928;53.074;6.646;2022-08-19T01:52:11;7.82;;;4.10;;
59145;SDS011;44928;53.074;6.646;2022-08-19T01:54:37;7.65;;;4.28;;
59145;SDS011;44928;53.074;6.646;2022-08-19T01:57:06;7.38;;;3.92;;
59145;SDS011;44928;53.074;6.646;2022-08-19T01:59:35;7.32;;;3.90;;
59145;SDS011;44928;53.074;6.646;2022-08-19T02:02:02;7.40;;;4.22;;
59145;SDS011;44928;53.074;6.646;2022-08-19T02:04:32;7.97;;;3.65;;
59145;SDS011;44928;53.074;6.646;2022-08-19T02:06:58;8.20;;;4.25;;
59145;SDS011;44928;53.074;6.646;2022-08-19T02:09:24;9.13;;;4.30;;
59145;SDS011;44928;53.074;6.646;2022-08-19T02:11:50;7.95;;;4.28;;
59145;SDS011;44928;53.074;6.646;2022-08-19T02:14:16;8.65;;;4.93;;
59145;SDS011;44928;53.074;6.646;2022-08-19T02:16:42;9.50;;;5.07;;
59145;SDS011;44928;53.074;6.646;2022-08-19T02:19:07;7.78;;;4.60;;
59145;SDS011;44928;53.074;6.646;2022-08-19T02:21:33;7.93;;;4.40;;
59145;SDS011;44928;53.074;6.646;2022-08-19T02:24:00;10.63;;;5.07;;
59145;SDS011;44928;53.074;6.646;2022-08-19T02:26:26;9.88;;;4.80;;
59145;SDS011;44928;53.074;6.646;2022-08-19T02:28:52;9.98;;;4.93;;
59145;SDS011;44928;53.074;6.646;2022-08-19T02:31:20;7.78;;;4.70;;
59145;SDS011;44928;53.074;6.646;2022-08-19T02:33:47;7.53;;;4.00;;
59145;SDS011;44928;53.074;6.646;2022-08-19T02:36:14;8.30;;;4.70;;
59145;SDS011;44928;53.074;6.646;2022-08-19T02:38:41;7.85;;;4.32;;
59145;SDS011;44928;53.074;6.646;2022-08-19T02:41:16;8.88;;;4.82;;
59145;SDS011;44928;53.074;6.646;2022-08-19T02:43:45;7.65;;;4.43;;
59145;SDS011;44928;53.074;6.646;2022-08-19T02:46:14;9.45;;;5.50;;
59145;SDS011;44928;53.074;6.646;2022-08-19T02:48:51;9.27;;;5.15;;
59145;SDS011;44928;53.074;6.646;2022-08-19T02:51:19;9.20;;;5.95;;
59145;SDS011;44928;53.074;6.646;2022-08-19T02:53:50;10.68;;;6.78;;
59145;SDS011;44928;53.074;6.646;2022-08-19T02:56:16;11.10;;;6.65;;
59145;SDS011;44928;53.074;6.646;2022-08-19T02:58:43;9.70;;;6.30;;
59145;SDS011;44928;53.074;6.646;2022-08-19T03:01:10;9.70;;;5.90;;
59145;SDS011;44928;53.074;6.646;2022-08-19T03:03:36;12.73;;;6.70;;
59145;SDS011;44928;53.074;6.646;2022-08-19T03:06:04;11.95;;;6.70;;
59145;SDS011;44928;53.074;6.646;2022-08-19T03:08:31;11.32;;;7.05;;
59145;SDS011;44928;53.074;6.646;2022-08-19T03:10:57;11.70;;;7.28;;
59145;SDS011;44928;53.074;6.646;2022-08-19T03:13:23;12.15;;;8.05;;
59145;SDS011;44928;53.074;6.646;2022-08-19T03:15:49;10.80;;;7.00;;
59145;SDS011;44928;53.074;6.646;2022-08-19T03:18:14;9.68;;;6.40;;
59145;SDS011;44928;53.074;6.646;2022-08-19T03:20:45;10.18;;;6.20;;
59145;SDS011;44928;53.074;6.646;2022-08-19T03:23:13;11.27;;;6.45;;
59145;SDS011;44928;53.074;6.646;2022-08-19T03:25:40;9.32;;;6.07;;
59145;SDS011;44928;53.074;6.646;2022-08-19T03:28:09;12.23;;;7.80;;
59145;SDS011;44928;53.074;6.646;2022-08-19T03:30:35;11.32;;;7.45;;
59145;SDS011;44928;53.074;6.646;2022-08-19T03:33:01;10.27;;;7.00;;
59145;SDS011;44928;53.074;6.646;2022-08-19T03:35:27;10.23;;;6.70;;
59145;SDS011;44928;53.074;6.646;2022-08-19T03:37:53;11.18;;;6.13;;
59145;SDS011;44928;53.074;6.646;2022-08-19T03:40:19;10.73;;;6.70;;
59145;SDS011;44928;53.074;6.646;2022-08-19T03:42:45;9.82;;;5.60;;
59145;SDS011;44928;53.074;6.646;2022-08-19T03:45:11;9.98;;;6.05;;
59145;SDS011;44928;53.074;6.646;2022-08-19T03:47:37;11.32;;;6.60;;
59145;SDS011;44928;53.074;6.646;2022-08-19T03:50:03;10.05;;;6.35;;
59145;SDS011;44928;53.074;6.646;2022-08-19T03:52:29;11.77;;;6.85;;
59145;SDS011;44928;53.074;6.646;2022-08-19T03:54:55;9.68;;;6.40;;
59145;SDS011;44928;53.074;6.646;2022-08-19T03:57:21;11.48;;;7.10;;
59145;SDS011;44928;53.074;6.646;2022-08-19T03:59:47;10.23;;;6.50;;
59145;SDS011;44928;53.074;6.646;2022-08-19T04:02:12;9.60;;;6.30;;
59145;SDS011;44928;53.074;6.646;2022-08-19T04:04:40;10.05;;;6.10;;
59145;SDS011;44928;53.074;6.646;2022-08-19T04:07:08;10.55;;;6.63;;
59145;SDS011;44928;53.074;6.646;2022-08-19T04:09:35;9.60;;;5.72;;
59145;SDS011;44928;53.074;6.646;2022-08-19T04:12:01;10.55;;;5.90;;
59145;SDS011;44928;53.074;6.646;2022-08-19T04:14:30;9.00;;;5.55;;
59145;SDS011;44928;53.074;6.646;2022-08-19T04:16:58;10.55;;;5.78;;
59145;SDS011;44928;53.074;6.646;2022-08-19T04:19:25;13.15;;;6.85;;
59145;SDS011;44928;53.074;6.646;2022-08-19T04:21:52;9.00;;;5.25;;
59145;SDS011;44928;53.074;6.646;2022-08-19T04:24:19;10.07;;;6.43;;
59145;SDS011;44928;53.074;6.646;2022-08-19T04:26:46;10.60;;;6.03;;
59145;SDS011;44928;53.074;6.646;2022-08-19T04:29:22;10.10;;;5.75;;
59145;SDS011;44928;53.074;6.646;2022-08-19T04:31:50;10.18;;;5.57;;
59145;SDS011;44928;53.074;6.646;2022-08-19T04:34:19;9.77;;;6.03;;
59145;SDS011;44928;53.074;6.646;2022-08-19T04:36:47;9.75;;;5.82;;
59145;SDS011;44928;53.074;6.646;2022-08-19T04:39:16;8.90;;;5.38;;
59145;SDS011;44928;53.074;6.646;2022-08-19T04:41:44;9.23;;;5.28;;
59145;SDS011;44928;53.074;6.646;2022-08-19T04:44:30;8.85;;;5.30;;
59145;SDS011;44928;53.074;6.646;2022-08-19T04:47:00;8.82;;;4.93;;
59145;SDS011;44928;53.074;6.646;2022-08-19T04:49:30;10.20;;;5.07;;
59145;SDS011;44928;53.074;6.646;2022-08-19T04:51:56;8.68;;;5.18;;
59145;SDS011;44928;53.074;6.646;2022-08-19T04:54:23;10.20;;;6.05;;
59145;SDS011;44928;53.074;6.646;2022-08-19T04:56:50;9.43;;;5.32;;
59145;SDS011;44928;53.074;6.646;2022-08-19T04:59:18;9.20;;;5.25;;
59145;SDS011;44928;53.074;6.646;2022-08-19T05:01:45;8.65;;;4.70;;
59145;SDS011;44928;53.074;6.646;2022-08-19T05:04:15;8.85;;;5.05;;
59145;SDS011;44928;53.074;6.646;2022-08-19T05:06:42;8.30;;;4.55;;
59145;SDS011;44928;53.074;6.646;2022-08-19T05:09:08;10.35;;;5.25;;
59145;SDS011;44928;53.074;6.646;2022-08-19T05:11:34;8.98;;;4.47;;
59145;SDS011;44928;53.074;6.646;2022-08-19T05:14:08;9.73;;;4.60;;
59145;SDS011;44928;53.074;6.646;2022-08-19T05:16:34;7.93;;;4.47;;
59145;SDS011;44928;53.074;6.646;2022-08-19T05:19:00;8.57;;;4.65;;
59145;SDS011;44928;53.074;6.646;2022-08-19T05:21:44;8.98;;;4.75;;
59145;SDS011;44928;53.074;6.646;2022-08-19T05:24:29;8.20;;;4.60;;
59145;SDS011;44928;53.074;6.646;2022-08-19T05:26:55;9.07;;;5.55;;
59145;SDS011;44928;53.074;6.646;2022-08-19T05:29:23;8.63;;;4.70;;
59145;SDS011;44928;53.074;6.646;2022-08-19T05:31:51;9.48;;;5.93;;
59145;SDS011;44928;53.074;6.646;2022-08-19T05:34:18;11.15;;;6.80;;
59145;SDS011;44928;53.074;6.646;2022-08-19T05:36:47;11.00;;;6.97;;
59145;SDS011;44928;53.074;6.646;2022-08-19T05:39:15;11.45;;;7.07;;
59145;SDS011;44928;53.074;6.646;2022-08-19T05:41:43;11.02;;;7.13;;
59145;SDS011;44928;53.074;6.646;2022-08-19T05:44:09;12.32;;;7.72;;
59145;SDS011;44928;53.074;6.646;2022-08-19T05:46:36;12.50;;;8.45;;
59145;SDS011;44928;53.074;6.646;2022-08-19T05:49:03;13.45;;;8.90;;
59145;SDS011;44928;53.074;6.646;2022-08-19T05:51:33;13.52;;;9.00;;
59145;SDS011;44928;53.074;6.646;2022-08-19T05:54:02;13.80;;;9.13;;
59145;SDS011;44928;53.074;6.646;2022-08-19T05:56:29;12.48;;;8.13;;
59145;SDS011;44928;53.074;6.646;2022-08-19T05:58:56;12.30;;;8.40;;
59145;SDS011;44928;53.074;6.646;2022-08-19T06:01:24;13.45;;;8.32;;
59145;SDS011;44928;53.074;6.646;2022-08-19T06:03:51;13.50;;;8.38;;
59145;SDS011;44928;53.074;6.646;2022-08-19T06:06:18;14.27;;;9.50;;
59145;SDS011;44928;53.074;6.646;2022-08-19T06:08:44;13.55;;;9.50;;
59145;SDS011;44928;53.074;6.646;2022-08-19T06:16:14;19.38;;;10.52;;
59145;SDS011;44928;53.074;6.646;2022-08-19T06:18:50;18.88;;;11.32;;
59145;SDS011;44928;53.074;6.646;2022-08-19T06:21:18;16.98;;;11.13;;
59145;SDS011;44928;53.074;6.646;2022-08-19T06:23:49;16.38;;;10.73;;
59145;SDS011;44928;53.074;6.646;2022-08-19T06:26:17;21.63;;;12.32;;
59145;SDS011;44928;53.074;6.646;2022-08-19T06:28:44;18.52;;;11.52;;
59145;SDS011;44928;53.074;6.646;2022-08-19T06:31:25;21.30;;;13.30;;
59145;SDS011;44928;53.074;6.646;2022-08-19T06:33:53;19.30;;;11.88;;
59145;SDS011;44928;53.074;6.646;2022-08-19T06:36:29;18.88;;;11.48;;
59145;SDS011;44928;53.074;6.646;2022-08-19T06:38:59;19.08;;;12.32;;
59145;SDS011;44928;53.074;6.646;2022-08-19T06:41:40;20.05;;;13.25;;
59145;SDS011;44928;53.074;6.646;2022-08-19T06:44:09;17.63;;;11.88;;
59145;SDS011;44928;53.074;6.646;2022-08-19T06:46:36;19.52;;;13.02;;
59145;SDS011;44928;53.074;6.646;2022-08-19T06:49:02;18.88;;;11.93;;
59145;SDS011;44928;53.074;6.646;2022-08-19T06:51:29;18.90;;;12.02;;
59145;SDS011;44928;53.074;6.646;2022-08-19T06:53:56;20.15;;;13.55;;
59145;SDS011;44928;53.074;6.646;2022-08-19T06:56:24;20.27;;;13.38;;
59145;SDS011;44928;53.074;6.646;2022-08-19T06:58:59;22.70;;;14.30;;
59145;SDS011;44928;53.074;6.646;2022-08-19T07:01:39;22.00;;;14.55;;
59145;SDS011;44928;53.074;6.646;2022-08-19T07:04:07;21.58;;;14.52;;
59145;SDS011;44928;53.074;6.646;2022-08-19T07:06:35;21.60;;;14.77;;
59145;SDS011;44928;53.074;6.646;2022-08-19T07:09:02;20.65;;;14.23;;
59145;SDS011;44928;53.074;6.646;2022-08-19T07:11:28;27.58;;;14.55;;
59145;SDS011;44928;53.074;6.646;2022-08-19T07:13:56;22.55;;;14.88;;
59145;SDS011;44928;53.074;6.646;2022-08-19T07:16:22;25.27;;;15.15;;
59145;SDS011;44928;53.074;6.646;2022-08-19T07:18:48;19.15;;;14.70;;
59145;SDS011;44928;53.074;6.646;2022-08-19T07:21:16;19.15;;;14.13;;
59145;SDS011;44928;53.074;6.646;2022-08-19T07:23:48;20.88;;;14.43;;
59145;SDS011;44928;53.074;6.646;2022-08-19T07:26:19;18.83;;;13.50;;
59145;SDS011;44928;53.074;6.646;2022-08-19T07:28:48;20.23;;;13.38;;
59145;SDS011;44928;53.074;6.646;2022-08-19T07:31:16;17.42;;;12.52;;
59145;SDS011;44928;53.074;6.646;2022-08-19T07:33:44;17.17;;;12.00;;
59145;SDS011;44928;53.074;6.646;2022-08-19T07:36:12;17.85;;;12.30;;
59145;SDS011;44928;53.074;6.646;2022-08-19T07:38:40;17.40;;;11.68;;
59145;SDS011;44928;53.074;6.646;2022-08-19T07:41:09;16.70;;;11.35;;
59145;SDS011;44928;53.074;6.646;2022-08-19T07:43:37;15.75;;;11.43;;
59145;SDS011;44928;53.074;6.646;2022-08-19T07:46:04;18.75;;;12.32;;
59145;SDS011;44928;53.074;6.646;2022-08-19T07:48:30;15.50;;;12.13;;
59145;SDS011;44928;53.074;6.646;2022-08-19T07:50:58;15.98;;;11.68;;
59145;SDS011;44928;53.074;6.646;2022-08-19T07:53:27;18.00;;;11.75;;
59145;SDS011;44928;53.074;6.646;2022-08-19T07:55:54;15.20;;;12.25;;
59145;SDS011;44928;53.074;6.646;2022-08-19T07:58:20;16.48;;;12.02;;
59145;SDS011;44928;53.074;6.646;2022-08-19T08:00:48;14.00;;;11.10;;
59145;SDS011;44928;53.074;6.646;2022-08-19T08:03:17;17.33;;;11.10;;
59145;SDS011;44928;53.074;6.646;2022-08-19T08:05:45;14.65;;;11.35;;
59145;SDS011;44928;53.074;6.646;2022-08-19T08:08:29;13.90;;;10.15;;
59145;SDS011;44928;53.074;6.646;2022-08-19T08:11:05;14.98;;;9.93;;
59145;SDS011;44928;53.074;6.646;2022-08-19T08:13:31;13.95;;;9.98;;
59145;SDS011;44928;53.074;6.646;2022-08-19T08:16:00;15.57;;;10.15;;
59145;SDS011;44928;53.074;6.646;2022-08-19T08:18:27;12.75;;;10.20;;
59145;SDS011;44928;53.074;6.646;2022-08-19T08:20:54;12.88;;;9.57;;
59145;SDS011;44928;53.074;6.646;2022-08-19T08:23:20;14.10;;;9.30;;
59145;SDS011;44928;53.074;6.646;2022-08-19T08:25:55;13.70;;;9.52;;
59145;SDS011;44928;53.074;6.646;2022-08-19T08:28:23;13.63;;;9.65;;
59145;SDS011;44928;53.074;6.646;2022-08-19T08:30:50;11.80;;;9.10;;
59145;SDS011;44928;53.074;6.646;2022-08-19T08:33:18;12.18;;;8.73;;
59145;SDS011;44928;53.074;6.646;2022-08-19T08:35:46;12.10;;;8.13;;
59145;SDS011;44928;53.074;6.646;2022-08-19T08:38:12;12.70;;;9.43;;
59145;SDS011;44928;53.074;6.646;2022-08-19T08:43:09;12.48;;;9.43;;
59145;SDS011;44928;53.074;6.646;2022-08-19T08:45:43;12.43;;;9.57;;
59145;SDS011;44928;53.074;6.646;2022-08-19T08:51:18;13.70;;;9.35;;
59145;SDS011;44928;53.074;6.646;2022-08-19T08:53:49;12.60;;;9.25;;
59145;SDS011;44928;53.074;6.646;2022-08-19T08:56:16;13.32;;;9.05;;
59145;SDS011;44928;53.074;6.646;2022-08-19T08:58:46;12.60;;;8.82;;
59145;SDS011;44928;53.074;6.646;2022-08-19T09:01:19;12.98;;;9.93;;
59145;SDS011;44928;53.074;6.646;2022-08-19T09:03:45;12.73;;;9.27;;
59145;SDS011;44928;53.074;6.646;2022-08-19T09:06:14;12.25;;;8.95;;
59145;SDS011;44928;53.074;6.646;2022-08-19T09:09:04;13.38;;;9.00;;
59145;SDS011;44928;53.074;6.646;2022-08-19T09:16:49;12.70;;;7.85;;
59145;SDS011;44928;53.074;6.646;2022-08-19T09:19:16;12.48;;;8.68;;
59145;SDS011;44928;53.074;6.646;2022-08-19T09:21:42;11.95;;;8.27;;
59145;SDS011;44928;53.074;6.646;2022-08-19T09:24:08;9.52;;;6.30;;
59145;SDS011;44928;53.074;6.646;2022-08-19T09:26:34;9.93;;;5.40;;
59145;SDS011;44928;53.074;6.646;2022-08-19T09:29:00;10.75;;;6.57;;
59145;SDS011;44928;53.074;6.646;2022-08-19T09:31:30;10.02;;;5.80;;
59145;SDS011;44928;53.074;6.646;2022-08-19T09:33:57;9.63;;;5.85;;
59145;SDS011;44928;53.074;6.646;2022-08-19T09:36:26;13.30;;;6.95;;
59145;SDS011;44928;53.074;6.646;2022-08-19T09:38:54;9.68;;;5.90;;
59145;SDS011;44928;53.074;6.646;2022-08-19T09:41:22;12.32;;;7.45;;
59145;SDS011;44928;53.074;6.646;2022-08-19T09:43:50;10.10;;;7.55;;
59145;SDS011;44928;53.074;6.646;2022-08-19T09:46:19;10.15;;;6.72;;
59145;SDS011;44928;53.074;6.646;2022-08-19T09:48:48;8.93;;;5.40;;
59145;SDS011;44928;53.074;6.646;2022-08-19T09:51:17;11.23;;;6.13;;
59145;SDS011;44928;53.074;6.646;2022-08-19T09:53:47;9.40;;;5.68;;
59145;SDS011;44928;53.074;6.646;2022-08-19T09:56:16;10.85;;;7.10;;
59145;SDS011;44928;53.074;6.646;2022-08-19T09:58:43;12.30;;;7.28;;
59145;SDS011;44928;53.074;6.646;2022-08-19T10:01:14;10.65;;;7.57;;
59145;SDS011;44928;53.074;6.646;2022-08-19T10:03:50;10.80;;;6.97;;
59145;SDS011;44928;53.074;6.646;2022-08-19T10:06:19;9.73;;;6.53;;
59145;SDS011;44928;53.074;6.646;2022-08-19T10:08:46;9.75;;;6.65;;
59145;SDS011;44928;53.074;6.646;2022-08-19T10:11:12;10.80;;;7.13;;
59145;SDS011;44928;53.074;6.646;2022-08-19T10:13:41;10.38;;;6.80;;
59145;SDS011;44928;53.074;6.646;2022-08-19T10:16:09;12.23;;;9.57;;
59145;SDS011;44928;53.074;6.646;2022-08-19T10:18:38;12.20;;;8.27;;
59145;SDS011;44928;53.074;6.646;2022-08-19T10:21:10;9.38;;;6.18;;
59145;SDS011;44928;53.074;6.646;2022-08-19T10:23:48;8.98;;;6.55;;
59145;SDS011;44928;53.074;6.646;2022-08-19T10:26:18;11.05;;;7.72;;
59145;SDS011;44928;53.074;6.646;2022-08-19T10:28:46;9.80;;;6.40;;
59145;SDS011;44928;53.074;6.646;2022-08-19T10:31:16;11.18;;;6.57;;
59145;SDS011;44928;53.074;6.646;2022-08-19T10:33:49;9.18;;;5.35;;
59145;SDS011;44928;53.074;6.646;2022-08-19T10:36:22;10.48;;;5.43;;
59145;SDS011;44928;53.074;6.646;2022-08-19T10:38:51;10.23;;;6.55;;
59145;SDS011;44928;53.074;6.646;2022-08-19T10:41:20;9.75;;;5.20;;
59145;SDS011;44928;53.074;6.646;2022-08-19T10:43:50;9.70;;;6.15;;
59145;SDS011;44928;53.074;6.646;2022-08-19T10:46:21;8.15;;;4.85;;
59145;SDS011;44928;53.074;6.646;2022-08-19T10:48:48;9.45;;;5.60;;
59145;SDS011;44928;53.074;6.646;2022-08-19T10:51:15;7.97;;;4.72;;
59145;SDS011;44928;53.074;6.646;2022-08-19T10:54:00;9.93;;;6.38;;
59145;SDS011;44928;53.074;6.646;2022-08-19T10:56:27;8.68;;;5.45;;
59145;SDS011;44928;53.074;6.646;2022-08-19T10:59:12;8.57;;;5.57;;
59145;SDS011;44928;53.074;6.646;2022-08-19T11:01:39;9.07;;;6.22;;
59145;SDS011;44928;53.074;6.646;2022-08-19T11:04:07;11.52;;;6.22;;
59145;SDS011;44928;53.074;6.646;2022-08-19T11:06:35;9.40;;;5.47;;
59145;SDS011;44928;53.074;6.646;2022-08-19T11:09:07;9.65;;;6.72;;
59145;SDS011;44928;53.074;6.646;2022-08-19T11:11:33;9.70;;;6.35;;
59145;SDS011;44928;53.074;6.646;2022-08-19T11:14:06;9.65;;;6.25;;
59145;SDS011;44928;53.074;6.646;2022-08-19T11:16:33;11.38;;;6.55;;
59145;SDS011;44928;53.074;6.646;2022-08-19T11:18:59;9.10;;;5.70;;
59145;SDS011;44928;53.074;6.646;2022-08-19T11:21:30;9.77;;;5.90;;
59145;SDS011;44928;53.074;6.646;2022-08-19T11:23:58;10.05;;;6.55;;
59145;SDS011;44928;53.074;6.646;2022-08-19T11:26:27;8.57;;;5.60;;
59145;SDS011;44928;53.074;6.646;2022-08-19T11:28:55;9.52;;;5.90;;
59145;SDS011;44928;53.074;6.646;2022-08-19T11:31:24;9.68;;;6.40;;
59145;SDS011;44928;53.074;6.646;2022-08-19T11:33:56;10.82;;;6.82;;
59145;SDS011;44928;53.074;6.646;2022-08-19T11:36:22;9.32;;;6.13;;
59145;SDS011;44928;53.074;6.646;2022-08-19T11:38:49;10.15;;;6.70;;
59145;SDS011;44928;53.074;6.646;2022-08-19T11:41:16;8.70;;;5.95;;
59145;SDS011;44928;53.074;6.646;2022-08-19T11:43:44;8.60;;;5.53;;
59145;SDS011;44928;53.074;6.646;2022-08-19T11:46:12;9.35;;;6.53;;
59145;SDS011;44928;53.074;6.646;2022-08-19T11:48:39;10.88;;;7.68;;
59145;SDS011;44928;53.074;6.646;2022-08-19T11:51:07;13.82;;;8.50;;
59145;SDS011;44928;53.074;6.646;2022-08-19T11:53:35;10.27;;;7.85;;
59145;SDS011;44928;53.074;6.646;2022-08-19T11:56:02;11.40;;;6.90;;
59145;SDS011;44928;53.074;6.646;2022-08-19T11:58:29;10.23;;;7.13;;
59145;SDS011;44928;53.074;6.646;2022-08-19T12:00:55;9.95;;;6.35;;
59145;SDS011;44928;53.074;6.646;2022-08-19T12:03:21;11.15;;;8.02;;
59145;SDS011;44928;53.074;6.646;2022-08-19T12:05:47;10.88;;;8.15;;
59145;SDS011;44928;53.074;6.646;2022-08-19T12:08:13;12.88;;;10.07;;
59145;SDS011;44928;53.074;6.646;2022-08-19T12:10:40;12.52;;;10.15;;
59145;SDS011;44928;53.074;6.646;2022-08-19T12:13:07;11.73;;;9.48;;
59145;SDS011;44928;53.074;6.646;2022-08-19T12:15:35;13.77;;;11.02;;
59145;SDS011;44928;53.074;6.646;2022-08-19T12:18:02;13.43;;;9.57;;
59145;SDS011;44928;53.074;6.646;2022-08-19T12:20:29;12.38;;;10.00;;
59145;SDS011;44928;53.074;6.646;2022-08-19T12:22:55;11.25;;;8.90;;
59145;SDS011;44928;53.074;6.646;2022-08-19T12:25:21;11.85;;;9.93;;
59145;SDS011;44928;53.074;6.646;2022-08-19T12:27:46;11.70;;;8.00;;
59145;SDS011;44928;53.074;6.646;2022-08-19T12:30:13;11.07;;;7.50;;
59145;SDS011;44928;53.074;6.646;2022-08-19T12:32:39;10.77;;;7.45;;
59145;SDS011;44928;53.074;6.646;2022-08-19T12:35:05;10.98;;;7.40;;
59145;SDS011;44928;53.074;6.646;2022-08-19T12:40:01;9.50;;;6.63;;
59145;SDS011;44928;53.074;6.646;2022-08-19T12:42:28;9.00;;;6.68;;
59145;SDS011;44928;53.074;6.646;2022-08-19T12:44:55;10.52;;;6.20;;
59145;SDS011;44928;53.074;6.646;2022-08-19T12:47:21;9.45;;;6.22;;
59145;SDS011;44928;53.074;6.646;2022-08-19T12:49:47;10.88;;;6.15;;
59145;SDS011;44928;53.074;6.646;2022-08-19T12:52:14;8.50;;;5.88;;
59145;SDS011;44928;53.074;6.646;2022-08-19T12:54:41;8.18;;;5.03;;
59145;SDS011;44928;53.074;6.646;2022-08-19T12:57:08;10.90;;;6.05;;
59145;SDS011;44928;53.074;6.646;2022-08-19T12:59:35;9.45;;;5.47;;
59145;SDS011;44928;53.074;6.646;2022-08-19T13:02:06;9.30;;;5.07;;
59145;SDS011;44928;53.074;6.646;2022-08-19T13:04:33;8.90;;;5.45;;
59145;SDS011;44928;53.074;6.646;2022-08-19T13:07:01;10.10;;;5.53;;
59145;SDS011;44928;53.074;6.646;2022-08-19T13:09:28;7.78;;;4.72;;
59145;SDS011;44928;53.074;6.646;2022-08-19T13:11:53;8.57;;;4.35;;
59145;SDS011;44928;53.074;6.646;2022-08-19T13:14:19;8.07;;;4.13;;
59145;SDS011;44928;53.074;6.646;2022-08-19T13:16:45;7.85;;;4.30;;
59145;SDS011;44928;53.074;6.646;2022-08-19T13:19:11;8.57;;;4.65;;
59145;SDS011;44928;53.074;6.646;2022-08-19T13:21:38;8.82;;;4.65;;
59145;SDS011;44928;53.074;6.646;2022-08-19T13:24:04;8.43;;;4.30;;
59145;SDS011;44928;53.074;6.646;2022-08-19T13:26:29;7.90;;;4.18;;
59145;SDS011;44928;53.074;6.646;2022-08-19T13:28:55;8.95;;;4.88;;
59145;SDS011;44928;53.074;6.646;2022-08-19T13:31:40;9.20;;;5.05;;
59145;SDS011;44928;53.074;6.646;2022-08-19T13:34:27;9.32;;;5.47;;
59145;SDS011;44928;53.074;6.646;2022-08-19T13:36:55;10.90;;;7.00;;
59145;SDS011;44928;53.074;6.646;2022-08-19T13:39:21;13.77;;;7.78;;
59145;SDS011;44928;53.074;6.646;2022-08-19T13:41:48;11.90;;;9.25;;
59145;SDS011;44928;53.074;6.646;2022-08-19T13:44:18;12.82;;;8.43;;
59145;SDS011;44928;53.074;6.646;2022-08-19T13:46:44;14.00;;;10.18;;
59145;SDS011;44928;53.074;6.646;2022-08-19T13:49:12;13.32;;;9.57;;
59145;SDS011;44928;53.074;6.646;2022-08-19T13:51:40;16.95;;;10.77;;
59145;SDS011;44928;53.074;6.646;2022-08-19T13:54:08;13.75;;;10.55;;
59145;SDS011;44928;53.074;6.646;2022-08-19T13:56:35;15.25;;;11.65;;
59145;SDS011;44928;53.074;6.646;2022-08-19T13:59:06;17.52;;;14.35;;
59145;SDS011;44928;53.074;6.646;2022-08-19T14:01:32;18.35;;;13.40;;
59145;SDS011;44928;53.074;6.646;2022-08-19T14:03:58;16.17;;;12.15;;
59145;SDS011;44928;53.074;6.646;2022-08-19T14:06:24;16.25;;;12.15;;
59145;SDS011;44928;53.074;6.646;2022-08-19T14:08:50;18.38;;;14.05;;
59145;SDS011;44928;53.074;6.646;2022-08-19T14:11:17;20.98;;;15.43;;
59145;SDS011;44928;53.074;6.646;2022-08-19T14:13:43;19.00;;;14.13;;
59145;SDS011;44928;53.074;6.646;2022-08-19T14:16:09;18.60;;;13.85;;
59145;SDS011;44928;53.074;6.646;2022-08-19T14:18:37;17.17;;;12.38;;
59145;SDS011;44928;53.074;6.646;2022-08-19T14:21:04;16.98;;;13.18;;
59145;SDS011;44928;53.074;6.646;2022-08-19T14:23:31;17.10;;;12.57;;
59145;SDS011;44928;53.074;6.646;2022-08-19T14:26:04;17.55;;;11.98;;
59145;SDS011;44928;53.074;6.646;2022-08-19T14:28:34;14.60;;;10.90;;
59145;SDS011;44928;53.074;6.646;2022-08-19T14:31:00;15.35;;;10.65;;
59145;SDS011;44928;53.074;6.646;2022-08-19T14:33:26;16.15;;;11.40;;
59145;SDS011;44928;53.074;6.646;2022-08-19T14:35:52;15.15;;;10.57;;
59145;SDS011;44928;53.074;6.646;2022-08-19T14:38:18;15.98;;;11.70;;
59145;SDS011;44928;53.074;6.646;2022-08-19T14:40:44;17.13;;;11.98;;
59145;SDS011;44928;53.074;6.646;2022-08-19T14:43:11;17.42;;;12.55;;
59145;SDS011;44928;53.074;6.646;2022-08-19T14:45:37;16.25;;;11.18;;
59145;SDS011;44928;53.074;6.646;2022-08-19T14:48:05;17.13;;;12.02;;
59145;SDS011;44928;53.074;6.646;2022-08-19T14:50:32;17.23;;;13.18;;
59145;SDS011;44928;53.074;6.646;2022-08-19T14:53:00;18.65;;;12.55;;
59145;SDS011;44928;53.074;6.646;2022-08-19T14:55:29;17.63;;;13.30;;
59145;SDS011;44928;53.074;6.646;2022-08-19T14:57:55;16.63;;;12.65;;
59145;SDS011;44928;53.074;6.646;2022-08-19T15:00:21;16.25;;;12.43;;
59145;SDS011;44928;53.074;6.646;2022-08-19T15:02:48;16.50;;;11.88;;
59145;SDS011;44928;53.074;6.646;2022-08-19T15:05:14;21.90;;;12.90;;